sensor_id;sensor_type;location;lat;lon;timestamp;P1;durP1;ratioP1;P2;durP2;ratioP2
55706;SDS011;41608;45.384;20.394;2023-04-23T00:00:21;16.15;;;10.35;;
55706;SDS011;41608;45.384;20.394;2023-04-23T00:02:51;19.35;;;9.85;;
55706;SDS011;41608;45.384;20.394;2023-04-23T00:05:24;15.40;;;9.13;;
55706;SDS011;41608;45.384;20.394;2023-04-23T00:07:52;20.35;;;9.63;;
55706;SDS011;41608;45.384;20.394;2023-04-23T00:10:18;13.50;;;8.95;;
55706;SDS011;41608;45.384;20.394;2023-04-23T00:12:59;17.55;;;9.00;;
55706;SDS011;41608;45.384;20.394;2023-04-23T00:15:25;13.05;;;8.93;;
55706;SDS011;41608;45.384;20.394;2023-04-23T00:18:32;15.02;;;9.27;;
55706;SDS011;41608;45.384;20.394;2023-04-23T00:20:58;17.55;;;8.32;;
55706;SDS011;41608;45.384;20.394;2023-04-23T00:23:27;14.57;;;9.13;;
55706;SDS011;41608;45.384;20.394;2023-04-23T00:25:55;20.45;;;9.43;;
55706;SDS011;41608;45.384;20.394;2023-04-23T00:28:21;14.25;;;9.32;;
55706;SDS011;41608;45.384;20.394;2023-04-23T00:30:50;16.80;;;9.63;;
55706;SDS011;41608;45.384;20.394;2023-04-23T00:33:16;15.10;;;9.13;;
55706;SDS011;41608;45.384;20.394;2023-04-23T00:35:42;13.50;;;9.30;;
55706;SDS011;41608;45.384;20.394;2023-04-23T00:38:08;13.82;;;8.70;;
55706;SDS011;41608;45.384;20.394;2023-04-23T00:40:39;14.52;;;8.88;;
55706;SDS011;41608;45.384;20.394;2023-04-23T00:43:07;15.23;;;10.70;;
55706;SDS011;41608;45.384;20.394;2023-04-23T00:45:36;18.08;;;10.60;;
55706;SDS011;41608;45.384;20.394;2023-04-23T00:48:02;15.40;;;10.85;;
55706;SDS011;41608;45.384;20.394;2023-04-23T00:50:30;16.08;;;10.65;;
55706;SDS011;41608;45.384;20.394;2023-04-23T00:52:56;18.15;;;11.65;;
55706;SDS011;41608;45.384;20.394;2023-04-23T00:55:23;16.27;;;10.95;;
55706;SDS011;41608;45.384;20.394;2023-04-23T00:57:49;12.68;;;11.00;;
55706;SDS011;41608;45.384;20.394;2023-04-23T01:00:15;18.92;;;12.13;;
55706;SDS011;41608;45.384;20.394;2023-04-23T01:02:42;15.85;;;10.98;;
55706;SDS011;41608;45.384;20.394;2023-04-23T01:05:11;15.32;;;11.32;;
55706;SDS011;41608;45.384;20.394;2023-04-23T01:07:39;20.58;;;12.88;;
55706;SDS011;41608;45.384;20.394;2023-04-23T01:10:31;20.90;;;12.85;;
55706;SDS011;41608;45.384;20.394;2023-04-23T01:13:00;20.42;;;12.65;;
55706;SDS011;41608;45.384;20.394;2023-04-23T01:15:26;21.50;;;12.35;;
55706;SDS011;41608;45.384;20.394;2023-04-23T01:17:52;14.85;;;11.18;;
55706;SDS011;41608;45.384;20.394;2023-04-23T01:20:18;17.52;;;10.93;;
55706;SDS011;41608;45.384;20.394;2023-04-23T01:22:44;13.57;;;9.93;;
55706;SDS011;41608;45.384;20.394;2023-04-23T01:25:11;18.40;;;10.93;;
55706;SDS011;41608;45.384;20.394;2023-04-23T01:27:37;14.80;;;11.07;;
55706;SDS011;41608;45.384;20.394;2023-04-23T01:30:03;22.67;;;11.68;;
55706;SDS011;41608;45.384;20.394;2023-04-23T01:32:30;17.27;;;11.35;;
55706;SDS011;41608;45.384;20.394;2023-04-23T01:34:57;16.75;;;12.57;;
55706;SDS011;41608;45.384;20.394;2023-04-23T01:37:23;16.33;;;11.93;;
55706;SDS011;41608;45.384;20.394;2023-04-23T01:39:50;16.60;;;10.93;;
55706;SDS011;41608;45.384;20.394;2023-04-23T01:42:16;20.33;;;11.25;;
55706;SDS011;41608;45.384;20.394;2023-04-23T01:44:42;17.92;;;12.27;;
55706;SDS011;41608;45.384;20.394;2023-04-23T01:47:13;15.50;;;11.05;;
55706;SDS011;41608;45.384;20.394;2023-04-23T01:49:39;15.23;;;10.18;;
55706;SDS011;41608;45.384;20.394;2023-04-23T01:52:06;14.25;;;10.88;;
55706;SDS011;41608;45.384;20.394;2023-04-23T01:54:34;15.38;;;10.15;;
55706;SDS011;41608;45.384;20.394;2023-04-23T01:57:00;14.85;;;10.02;;
55706;SDS011;41608;45.384;20.394;2023-04-23T01:59:27;16.50;;;10.43;;
55706;SDS011;41608;45.384;20.394;2023-04-23T02:01:53;13.85;;;9.57;;
55706;SDS011;41608;45.384;20.394;2023-04-23T02:04:19;16.92;;;11.27;;
55706;SDS011;41608;45.384;20.394;2023-04-23T02:06:46;11.38;;;9.63;;
55706;SDS011;41608;45.384;20.394;2023-04-23T02:09:12;15.68;;;9.40;;
55706;SDS011;41608;45.384;20.394;2023-04-23T02:11:38;16.55;;;10.18;;
55706;SDS011;41608;45.384;20.394;2023-04-23T02:14:05;13.32;;;9.57;;
55706;SDS011;41608;45.384;20.394;2023-04-23T02:16:36;12.52;;;9.65;;
55706;SDS011;41608;45.384;20.394;2023-04-23T02:19:03;11.90;;;9.27;;
55706;SDS011;41608;45.384;20.394;2023-04-23T02:21:34;15.98;;;9.48;;
55706;SDS011;41608;45.384;20.394;2023-04-23T02:24:00;19.83;;;11.73;;
55706;SDS011;41608;45.384;20.394;2023-04-23T02:26:29;13.50;;;10.60;;
55706;SDS011;41608;45.384;20.394;2023-04-23T02:28:55;19.65;;;11.35;;
55706;SDS011;41608;45.384;20.394;2023-04-23T02:31:21;17.05;;;11.43;;
55706;SDS011;41608;45.384;20.394;2023-04-23T02:33:47;14.75;;;11.80;;
55706;SDS011;41608;45.384;20.394;2023-04-23T02:36:16;18.60;;;11.30;;
55706;SDS011;41608;45.384;20.394;2023-04-23T02:38:45;22.25;;;11.63;;
55706;SDS011;41608;45.384;20.394;2023-04-23T02:41:13;18.05;;;10.85;;
55706;SDS011;41608;45.384;20.394;2023-04-23T02:43:39;20.75;;;12.70;;
55706;SDS011;41608;45.384;20.394;2023-04-23T02:46:05;15.60;;;11.45;;
55706;SDS011;41608;45.384;20.394;2023-04-23T02:48:35;17.73;;;11.07;;
55706;SDS011;41608;45.384;20.394;2023-04-23T02:51:01;14.90;;;11.25;;
55706;SDS011;41608;45.384;20.394;2023-04-23T02:53:30;15.70;;;11.40;;
55706;SDS011;41608;45.384;20.394;2023-04-23T02:55:56;24.95;;;12.43;;
55706;SDS011;41608;45.384;20.394;2023-04-23T02:58:24;16.65;;;12.07;;
55706;SDS011;41608;45.384;20.394;2023-04-23T03:00:50;21.15;;;14.32;;
55706;SDS011;41608;45.384;20.394;2023-04-23T03:03:17;18.75;;;13.48;;
55706;SDS011;41608;45.384;20.394;2023-04-23T03:05:43;14.20;;;11.23;;
55706;SDS011;41608;45.384;20.394;2023-04-23T03:08:09;13.48;;;11.40;;
55706;SDS011;41608;45.384;20.394;2023-04-23T03:10:35;12.73;;;11.00;;
55706;SDS011;41608;45.384;20.394;2023-04-23T03:13:01;16.23;;;11.40;;
55706;SDS011;41608;45.384;20.394;2023-04-23T03:15:29;13.80;;;11.00;;
55706;SDS011;41608;45.384;20.394;2023-04-23T03:17:56;15.27;;;10.18;;
55706;SDS011;41608;45.384;20.394;2023-04-23T03:20:22;15.85;;;9.75;;
55706;SDS011;41608;45.384;20.394;2023-04-23T03:22:48;15.40;;;10.43;;
55706;SDS011;41608;45.384;20.394;2023-04-23T03:25:14;14.00;;;9.70;;
55706;SDS011;41608;45.384;20.394;2023-04-23T03:27:40;14.95;;;11.65;;
55706;SDS011;41608;45.384;20.394;2023-04-23T03:30:08;16.45;;;11.13;;
55706;SDS011;41608;45.384;20.394;2023-04-23T03:32:34;15.57;;;10.98;;
55706;SDS011;41608;45.384;20.394;2023-04-23T03:35:01;13.50;;;10.50;;
55706;SDS011;41608;45.384;20.394;2023-04-23T03:37:33;14.13;;;9.63;;
55706;SDS011;41608;45.384;20.394;2023-04-23T03:39:59;15.55;;;10.32;;
55706;SDS011;41608;45.384;20.394;2023-04-23T03:42:31;12.27;;;9.07;;
55706;SDS011;41608;45.384;20.394;2023-04-23T03:44:57;17.80;;;11.02;;
55706;SDS011;41608;45.384;20.394;2023-04-23T03:47:23;11.30;;;9.20;;
55706;SDS011;41608;45.384;20.394;2023-04-23T03:49:49;12.35;;;9.68;;
55706;SDS011;41608;45.384;20.394;2023-04-23T03:52:18;16.63;;;10.35;;
55706;SDS011;41608;45.384;20.394;2023-04-23T03:54:44;12.43;;;9.68;;
55706;SDS011;41608;45.384;20.394;2023-04-23T03:57:10;10.95;;;9.80;;
55706;SDS011;41608;45.384;20.394;2023-04-23T03:59:38;12.05;;;9.48;;
55706;SDS011;41608;45.384;20.394;2023-04-23T04:02:04;10.73;;;8.50;;
55706;SDS011;41608;45.384;20.394;2023-04-23T04:04:31;10.93;;;8.48;;
55706;SDS011;41608;45.384;20.394;2023-04-23T04:06:58;13.27;;;8.52;;
55706;SDS011;41608;45.384;20.394;2023-04-23T04:09:25;15.60;;;9.85;;
55706;SDS011;41608;45.384;20.394;2023-04-23T04:11:51;15.00;;;8.90;;
55706;SDS011;41608;45.384;20.394;2023-04-23T04:14:18;13.40;;;9.65;;
55706;SDS011;41608;45.384;20.394;2023-04-23T04:16:47;14.30;;;8.25;;
55706;SDS011;41608;45.384;20.394;2023-04-23T04:19:13;12.85;;;8.45;;
55706;SDS011;41608;45.384;20.394;2023-04-23T04:21:39;17.00;;;9.10;;
55706;SDS011;41608;45.384;20.394;2023-04-23T04:24:05;16.08;;;10.38;;
55706;SDS011;41608;45.384;20.394;2023-04-23T04:26:32;12.13;;;8.85;;
55706;SDS011;41608;45.384;20.394;2023-04-23T04:28:58;13.48;;;10.20;;
55706;SDS011;41608;45.384;20.394;2023-04-23T04:31:26;13.25;;;9.32;;
55706;SDS011;41608;45.384;20.394;2023-04-23T04:33:55;16.38;;;8.82;;
55706;SDS011;41608;45.384;20.394;2023-04-23T04:36:22;23.13;;;9.07;;
55706;SDS011;41608;45.384;20.394;2023-04-23T04:38:52;12.15;;;8.07;;
55706;SDS011;41608;45.384;20.394;2023-04-23T04:41:24;12.00;;;8.98;;
55706;SDS011;41608;45.384;20.394;2023-04-23T04:43:51;14.95;;;9.35;;
55706;SDS011;41608;45.384;20.394;2023-04-23T04:46:22;13.23;;;9.77;;
55706;SDS011;41608;45.384;20.394;2023-04-23T04:48:50;19.73;;;10.10;;
55706;SDS011;41608;45.384;20.394;2023-04-23T04:51:16;11.52;;;8.48;;
55706;SDS011;41608;45.384;20.394;2023-04-23T04:53:42;14.73;;;8.15;;
55706;SDS011;41608;45.384;20.394;2023-04-23T04:56:08;11.48;;;8.00;;
55706;SDS011;41608;45.384;20.394;2023-04-23T04:58:35;12.52;;;7.45;;
55706;SDS011;41608;45.384;20.394;2023-04-23T05:01:03;12.65;;;7.68;;
55706;SDS011;41608;45.384;20.394;2023-04-23T05:03:29;8.60;;;6.68;;
55706;SDS011;41608;45.384;20.394;2023-04-23T05:05:56;14.48;;;7.40;;
55706;SDS011;41608;45.384;20.394;2023-04-23T05:08:24;23.27;;;8.45;;
55706;SDS011;41608;45.384;20.394;2023-04-23T05:10:50;10.90;;;7.60;;
55706;SDS011;41608;45.384;20.394;2023-04-23T05:13:18;13.30;;;7.30;;
55706;SDS011;41608;45.384;20.394;2023-04-23T05:15:45;13.23;;;7.53;;
55706;SDS011;41608;45.384;20.394;2023-04-23T05:18:18;11.40;;;6.63;;
55706;SDS011;41608;45.384;20.394;2023-04-23T05:20:45;11.75;;;7.63;;
55706;SDS011;41608;45.384;20.394;2023-04-23T05:23:11;11.32;;;7.30;;
55706;SDS011;41608;45.384;20.394;2023-04-23T05:25:37;13.02;;;6.85;;
55706;SDS011;41608;45.384;20.394;2023-04-23T05:28:03;8.30;;;6.80;;
55706;SDS011;41608;45.384;20.394;2023-04-23T05:30:32;9.43;;;7.15;;
55706;SDS011;41608;45.384;20.394;2023-04-23T05:32:58;9.23;;;6.80;;
55706;SDS011;41608;45.384;20.394;2023-04-23T05:35:24;15.23;;;9.43;;
55706;SDS011;41608;45.384;20.394;2023-04-23T05:37:51;9.95;;;6.85;;
55706;SDS011;41608;45.384;20.394;2023-04-23T05:40:17;13.20;;;6.50;;
55706;SDS011;41608;45.384;20.394;2023-04-23T05:42:43;12.70;;;6.82;;
55706;SDS011;41608;45.384;20.394;2023-04-23T05:45:13;10.30;;;6.15;;
55706;SDS011;41608;45.384;20.394;2023-04-23T05:47:41;11.48;;;5.43;;
55706;SDS011;41608;45.384;20.394;2023-04-23T05:50:12;13.05;;;5.30;;
55706;SDS011;41608;45.384;20.394;2023-04-23T05:52:38;11.93;;;6.20;;
55706;SDS011;41608;45.384;20.394;2023-04-23T05:55:05;11.20;;;5.95;;
55706;SDS011;41608;45.384;20.394;2023-04-23T05:57:33;7.72;;;5.35;;
55706;SDS011;41608;45.384;20.394;2023-04-23T05:59:59;21.98;;;7.93;;
55706;SDS011;41608;45.384;20.394;2023-04-23T06:02:25;12.43;;;5.90;;
55706;SDS011;41608;45.384;20.394;2023-04-23T06:04:53;8.95;;;6.82;;
55706;SDS011;41608;45.384;20.394;2023-04-23T06:07:19;11.70;;;6.60;;
55706;SDS011;41608;45.384;20.394;2023-04-23T06:09:45;7.35;;;5.43;;
55706;SDS011;41608;45.384;20.394;2023-04-23T06:12:12;10.85;;;6.05;;
55706;SDS011;41608;45.384;20.394;2023-04-23T06:14:38;11.70;;;6.20;;
55706;SDS011;41608;45.384;20.394;2023-04-23T06:17:04;10.57;;;6.00;;
55706;SDS011;41608;45.384;20.394;2023-04-23T06:19:35;10.00;;;5.63;;
55706;SDS011;41608;45.384;20.394;2023-04-23T06:22:01;11.40;;;5.70;;
55706;SDS011;41608;45.384;20.394;2023-04-23T06:24:35;11.00;;;5.72;;
55706;SDS011;41608;45.384;20.394;2023-04-23T06:27:01;10.77;;;5.47;;
55706;SDS011;41608;45.384;20.394;2023-04-23T06:29:27;11.45;;;5.00;;
55706;SDS011;41608;45.384;20.394;2023-04-23T06:31:54;9.38;;;4.85;;
55706;SDS011;41608;45.384;20.394;2023-04-23T06:34:21;12.93;;;6.32;;
55706;SDS011;41608;45.384;20.394;2023-04-23T06:36:47;10.55;;;5.53;;
55706;SDS011;41608;45.384;20.394;2023-04-23T06:39:13;13.00;;;4.85;;
55706;SDS011;41608;45.384;20.394;2023-04-23T06:41:40;8.82;;;5.30;;
55706;SDS011;41608;45.384;20.394;2023-04-23T06:44:06;15.10;;;5.95;;
55706;SDS011;41608;45.384;20.394;2023-04-23T06:46:32;11.25;;;5.47;;
55706;SDS011;41608;45.384;20.394;2023-04-23T06:49:00;11.27;;;5.40;;
55706;SDS011;41608;45.384;20.394;2023-04-23T06:51:28;14.30;;;6.10;;
55706;SDS011;41608;45.384;20.394;2023-04-23T06:53:56;12.35;;;6.78;;
55706;SDS011;41608;45.384;20.394;2023-04-23T06:56:23;14.57;;;5.53;;
55706;SDS011;41608;45.384;20.394;2023-04-23T06:58:50;12.30;;;6.13;;
55706;SDS011;41608;45.384;20.394;2023-04-23T07:01:17;11.25;;;5.22;;
55706;SDS011;41608;45.384;20.394;2023-04-23T07:03:44;8.32;;;4.88;;
55706;SDS011;41608;45.384;20.394;2023-04-23T07:06:13;14.70;;;5.63;;
55706;SDS011;41608;45.384;20.394;2023-04-23T07:08:41;8.27;;;4.97;;
55706;SDS011;41608;45.384;20.394;2023-04-23T07:11:07;14.50;;;5.55;;
55706;SDS011;41608;45.384;20.394;2023-04-23T07:13:34;11.15;;;5.53;;
55706;SDS011;41608;45.384;20.394;2023-04-23T07:16:00;14.25;;;6.30;;
55706;SDS011;41608;45.384;20.394;2023-04-23T07:18:27;13.77;;;6.13;;
55706;SDS011;41608;45.384;20.394;2023-04-23T07:20:53;9.25;;;4.93;;
55706;SDS011;41608;45.384;20.394;2023-04-23T07:23:22;12.15;;;5.38;;
55706;SDS011;41608;45.384;20.394;2023-04-23T07:25:48;12.32;;;5.60;;
55706;SDS011;41608;45.384;20.394;2023-04-23T07:28:16;18.15;;;5.50;;
55706;SDS011;41608;45.384;20.394;2023-04-23T07:30:42;9.93;;;4.72;;
55706;SDS011;41608;45.384;20.394;2023-04-23T07:33:10;10.18;;;5.20;;
55706;SDS011;41608;45.384;20.394;2023-04-23T07:35:36;11.98;;;4.88;;
55706;SDS011;41608;45.384;20.394;2023-04-23T07:38:03;9.23;;;4.35;;
55706;SDS011;41608;45.384;20.394;2023-04-23T07:40:29;12.18;;;4.15;;
55706;SDS011;41608;45.384;20.394;2023-04-23T07:42:57;7.90;;;3.67;;
55706;SDS011;41608;45.384;20.394;2023-04-23T07:45:24;6.95;;;4.30;;
55706;SDS011;41608;45.384;20.394;2023-04-23T07:47:50;12.43;;;4.28;;
55706;SDS011;41608;45.384;20.394;2023-04-23T07:50:16;9.57;;;4.70;;
55706;SDS011;41608;45.384;20.394;2023-04-23T07:52:44;8.68;;;4.20;;
55706;SDS011;41608;45.384;20.394;2023-04-23T07:55:11;10.18;;;4.50;;
55706;SDS011;41608;45.384;20.394;2023-04-23T07:57:37;13.38;;;5.55;;
55706;SDS011;41608;45.384;20.394;2023-04-23T08:00:04;5.90;;;4.70;;
55706;SDS011;41608;45.384;20.394;2023-04-23T08:02:33;12.18;;;4.55;;
55706;SDS011;41608;45.384;20.394;2023-04-23T08:04:59;13.70;;;4.45;;
55706;SDS011;41608;45.384;20.394;2023-04-23T08:07:28;11.80;;;5.07;;
55706;SDS011;41608;45.384;20.394;2023-04-23T08:09:54;6.97;;;4.18;;
55706;SDS011;41608;45.384;20.394;2023-04-23T08:12:23;8.32;;;4.47;;
55706;SDS011;41608;45.384;20.394;2023-04-23T08:14:49;10.43;;;4.72;;
55706;SDS011;41608;45.384;20.394;2023-04-23T08:17:15;8.30;;;4.38;;
55706;SDS011;41608;45.384;20.394;2023-04-23T08:19:41;11.43;;;4.65;;
55706;SDS011;41608;45.384;20.394;2023-04-23T08:22:08;13.52;;;5.05;;
55706;SDS011;41608;45.384;20.394;2023-04-23T08:24:34;11.15;;;3.92;;
55706;SDS011;41608;45.384;20.394;2023-04-23T08:27:01;9.82;;;4.72;;
55706;SDS011;41608;45.384;20.394;2023-04-23T08:29:27;9.73;;;4.13;;
55706;SDS011;41608;45.384;20.394;2023-04-23T08:31:53;15.63;;;4.90;;
55706;SDS011;41608;45.384;20.394;2023-04-23T08:34:19;5.78;;;4.47;;
55706;SDS011;41608;45.384;20.394;2023-04-23T08:36:45;11.52;;;5.45;;
55706;SDS011;41608;45.384;20.394;2023-04-23T08:39:12;10.95;;;5.05;;
55706;SDS011;41608;45.384;20.394;2023-04-23T08:41:39;10.10;;;4.70;;
55706;SDS011;41608;45.384;20.394;2023-04-23T08:44:16;10.52;;;4.60;;
55706;SDS011;41608;45.384;20.394;2023-04-23T08:46:43;26.98;;;7.07;;
55706;SDS011;41608;45.384;20.394;2023-04-23T08:49:13;9.20;;;4.05;;
55706;SDS011;41608;45.384;20.394;2023-04-23T08:54:27;10.70;;;4.45;;
55706;SDS011;41608;45.384;20.394;2023-04-23T08:56:57;7.30;;;5.15;;
55706;SDS011;41608;45.384;20.394;2023-04-23T08:59:24;14.60;;;5.07;;
55706;SDS011;41608;45.384;20.394;2023-04-23T09:01:51;11.00;;;4.88;;
55706;SDS011;41608;45.384;20.394;2023-04-23T09:04:18;10.48;;;4.93;;
55706;SDS011;41608;45.384;20.394;2023-04-23T09:06:44;9.68;;;4.72;;
55706;SDS011;41608;45.384;20.394;2023-04-23T09:09:14;6.40;;;4.68;;
55706;SDS011;41608;45.384;20.394;2023-04-23T09:11:42;8.65;;;5.03;;
55706;SDS011;41608;45.384;20.394;2023-04-23T09:14:08;6.90;;;3.90;;
55706;SDS011;41608;45.384;20.394;2023-04-23T09:16:34;13.25;;;4.72;;
55706;SDS011;41608;45.384;20.394;2023-04-23T09:19:01;10.02;;;4.47;;
55706;SDS011;41608;45.384;20.394;2023-04-23T09:21:27;7.65;;;4.32;;
55706;SDS011;41608;45.384;20.394;2023-04-23T09:23:53;8.27;;;4.40;;
55706;SDS011;41608;45.384;20.394;2023-04-23T09:26:20;9.63;;;4.00;;
55706;SDS011;41608;45.384;20.394;2023-04-23T09:28:50;10.52;;;4.88;;
55706;SDS011;41608;45.384;20.394;2023-04-23T09:31:20;9.55;;;5.07;;
55706;SDS011;41608;45.384;20.394;2023-04-23T09:33:50;8.05;;;3.88;;
55706;SDS011;41608;45.384;20.394;2023-04-23T09:36:19;15.70;;;4.88;;
55706;SDS011;41608;45.384;20.394;2023-04-23T09:38:45;11.23;;;4.75;;
55706;SDS011;41608;45.384;20.394;2023-04-23T09:41:24;13.80;;;5.47;;
55706;SDS011;41608;45.384;20.394;2023-04-23T09:43:55;10.73;;;5.03;;
55706;SDS011;41608;45.384;20.394;2023-04-23T09:46:31;11.40;;;5.32;;
55706;SDS011;41608;45.384;20.394;2023-04-23T09:48:59;12.10;;;4.88;;
55706;SDS011;41608;45.384;20.394;2023-04-23T09:51:26;8.30;;;4.68;;
55706;SDS011;41608;45.384;20.394;2023-04-23T09:53:52;9.25;;;5.30;;
55706;SDS011;41608;45.384;20.394;2023-04-23T09:56:21;10.20;;;4.63;;
55706;SDS011;41608;45.384;20.394;2023-04-23T09:58:47;20.13;;;5.95;;
55706;SDS011;41608;45.384;20.394;2023-04-23T10:01:15;8.07;;;4.28;;
55706;SDS011;41608;45.384;20.394;2023-04-23T10:03:42;9.73;;;4.65;;
55706;SDS011;41608;45.384;20.394;2023-04-23T10:06:12;17.92;;;6.07;;
55706;SDS011;41608;45.384;20.394;2023-04-23T10:08:41;12.40;;;5.35;;
55706;SDS011;41608;45.384;20.394;2023-04-23T10:11:08;10.40;;;5.15;;
55706;SDS011;41608;45.384;20.394;2023-04-23T10:13:37;6.75;;;5.32;;
55706;SDS011;41608;45.384;20.394;2023-04-23T10:16:06;10.35;;;6.32;;
55706;SDS011;41608;45.384;20.394;2023-04-23T10:18:33;10.10;;;4.80;;
55706;SDS011;41608;45.384;20.394;2023-04-23T10:21:01;7.72;;;5.15;;
55706;SDS011;41608;45.384;20.394;2023-04-23T10:23:27;9.05;;;4.78;;
55706;SDS011;41608;45.384;20.394;2023-04-23T10:25:53;9.50;;;5.00;;
55706;SDS011;41608;45.384;20.394;2023-04-23T10:28:21;10.48;;;4.70;;
55706;SDS011;41608;45.384;20.394;2023-04-23T10:30:53;10.90;;;5.32;;
55706;SDS011;41608;45.384;20.394;2023-04-23T10:33:21;12.20;;;4.93;;
55706;SDS011;41608;45.384;20.394;2023-04-23T10:35:49;9.95;;;5.55;;
55706;SDS011;41608;45.384;20.394;2023-04-23T10:38:16;12.57;;;6.10;;
55706;SDS011;41608;45.384;20.394;2023-04-23T10:40:54;41.22;;;9.13;;
55706;SDS011;41608;45.384;20.394;2023-04-23T10:43:23;7.13;;;4.30;;
55706;SDS011;41608;45.384;20.394;2023-04-23T10:45:52;10.27;;;5.53;;
55706;SDS011;41608;45.384;20.394;2023-04-23T10:48:19;9.38;;;5.03;;
55706;SDS011;41608;45.384;20.394;2023-04-23T10:50:56;8.57;;;5.30;;
55706;SDS011;41608;45.384;20.394;2023-04-23T10:53:23;8.82;;;5.57;;
55706;SDS011;41608;45.384;20.394;2023-04-23T10:56:03;7.90;;;5.07;;
55706;SDS011;41608;45.384;20.394;2023-04-23T10:58:49;10.30;;;5.30;;
55706;SDS011;41608;45.384;20.394;2023-04-23T11:01:18;8.65;;;4.35;;
55706;SDS011;41608;45.384;20.394;2023-04-23T11:03:46;9.63;;;5.43;;
55706;SDS011;41608;45.384;20.394;2023-04-23T11:06:13;8.45;;;4.90;;
55706;SDS011;41608;45.384;20.394;2023-04-23T11:08:49;9.70;;;5.10;;
55706;SDS011;41608;45.384;20.394;2023-04-23T11:11:17;10.07;;;5.00;;
55706;SDS011;41608;45.384;20.394;2023-04-23T11:13:50;9.30;;;5.32;;
55706;SDS011;41608;45.384;20.394;2023-04-23T11:16:20;11.60;;;4.60;;
55706;SDS011;41608;45.384;20.394;2023-04-23T11:18:56;8.93;;;4.85;;
55706;SDS011;41608;45.384;20.394;2023-04-23T11:21:55;11.55;;;5.55;;
55706;SDS011;41608;45.384;20.394;2023-04-23T11:26:34;7.85;;;5.50;;
55706;SDS011;41608;45.384;20.394;2023-04-23T11:29:01;10.63;;;5.43;;
55706;SDS011;41608;45.384;20.394;2023-04-23T11:31:28;8.93;;;5.28;;
55706;SDS011;41608;45.384;20.394;2023-04-23T11:33:54;11.63;;;5.60;;
55706;SDS011;41608;45.384;20.394;2023-04-23T11:36:21;8.40;;;5.25;;
55706;SDS011;41608;45.384;20.394;2023-04-23T11:38:47;9.63;;;5.32;;
55706;SDS011;41608;45.384;20.394;2023-04-23T11:41:14;11.88;;;5.30;;
55706;SDS011;41608;45.384;20.394;2023-04-23T11:43:40;16.40;;;6.20;;
55706;SDS011;41608;45.384;20.394;2023-04-23T11:46:07;10.50;;;5.40;;
55706;SDS011;41608;45.384;20.394;2023-04-23T11:48:38;6.47;;;4.78;;
55706;SDS011;41608;45.384;20.394;2023-04-23T11:51:05;8.50;;;4.50;;
55706;SDS011;41608;45.384;20.394;2023-04-23T11:53:31;12.85;;;4.32;;
55706;SDS011;41608;45.384;20.394;2023-04-23T11:55:57;7.05;;;5.22;;
55706;SDS011;41608;45.384;20.394;2023-04-23T11:58:24;7.13;;;5.20;;
55706;SDS011;41608;45.384;20.394;2023-04-23T12:00:55;9.98;;;5.85;;
55706;SDS011;41608;45.384;20.394;2023-04-23T12:03:24;10.43;;;5.55;;
55706;SDS011;41608;45.384;20.394;2023-04-23T12:05:51;9.30;;;5.05;;
55706;SDS011;41608;45.384;20.394;2023-04-23T12:08:17;11.77;;;5.43;;
55706;SDS011;41608;45.384;20.394;2023-04-23T12:10:54;7.32;;;5.03;;
55706;SDS011;41608;45.384;20.394;2023-04-23T12:13:21;8.35;;;4.93;;
55706;SDS011;41608;45.384;20.394;2023-04-23T12:15:48;8.88;;;4.65;;
55706;SDS011;41608;45.384;20.394;2023-04-23T12:18:15;8.93;;;5.22;;
55706;SDS011;41608;45.384;20.394;2023-04-23T12:20:41;7.93;;;4.63;;
55706;SDS011;41608;45.384;20.394;2023-04-23T12:23:07;12.27;;;5.13;;
55706;SDS011;41608;45.384;20.394;2023-04-23T12:25:36;9.75;;;5.47;;
55706;SDS011;41608;45.384;20.394;2023-04-23T12:28:06;11.32;;;5.32;;
55706;SDS011;41608;45.384;20.394;2023-04-23T12:30:33;7.03;;;4.95;;
55706;SDS011;41608;45.384;20.394;2023-04-23T12:33:09;8.95;;;5.32;;
55706;SDS011;41608;45.384;20.394;2023-04-23T12:35:42;12.40;;;6.55;;
55706;SDS011;41608;45.384;20.394;2023-04-23T12:38:22;16.00;;;6.90;;
55706;SDS011;41608;45.384;20.394;2023-04-23T12:40:49;9.23;;;5.40;;
55706;SDS011;41608;45.384;20.394;2023-04-23T12:43:15;7.07;;;4.75;;
55706;SDS011;41608;45.384;20.394;2023-04-23T12:45:41;12.13;;;6.78;;
55706;SDS011;41608;45.384;20.394;2023-04-23T12:48:07;9.60;;;4.93;;
55706;SDS011;41608;45.384;20.394;2023-04-23T12:50:36;7.75;;;4.53;;
55706;SDS011;41608;45.384;20.394;2023-04-23T12:53:03;6.25;;;4.93;;
55706;SDS011;41608;45.384;20.394;2023-04-23T12:55:32;9.88;;;6.07;;
55706;SDS011;41608;45.384;20.394;2023-04-23T12:57:58;8.77;;;4.95;;
55706;SDS011;41608;45.384;20.394;2023-04-23T13:00:25;13.15;;;6.10;;
55706;SDS011;41608;45.384;20.394;2023-04-23T13:02:51;11.10;;;5.65;;
55706;SDS011;41608;45.384;20.394;2023-04-23T13:05:17;11.13;;;5.47;;
55706;SDS011;41608;45.384;20.394;2023-04-23T13:07:43;6.43;;;4.75;;
55706;SDS011;41608;45.384;20.394;2023-04-23T13:10:10;11.10;;;4.93;;
55706;SDS011;41608;45.384;20.394;2023-04-23T13:12:36;6.63;;;4.10;;
55706;SDS011;41608;45.384;20.394;2023-04-23T13:15:02;6.57;;;5.72;;
55706;SDS011;41608;45.384;20.394;2023-04-23T13:17:29;9.88;;;5.07;;
55706;SDS011;41608;45.384;20.394;2023-04-23T13:19:56;9.43;;;4.78;;
55706;SDS011;41608;45.384;20.394;2023-04-23T13:22:23;7.65;;;4.78;;
55706;SDS011;41608;45.384;20.394;2023-04-23T13:24:53;7.72;;;4.93;;
55706;SDS011;41608;45.384;20.394;2023-04-23T13:27:21;9.25;;;4.90;;
55706;SDS011;41608;45.384;20.394;2023-04-23T13:29:47;7.55;;;4.65;;
55706;SDS011;41608;45.384;20.394;2023-04-23T13:32:14;9.43;;;5.07;;
55706;SDS011;41608;45.384;20.394;2023-04-23T13:34:40;8.77;;;4.90;;
55706;SDS011;41608;45.384;20.394;2023-04-23T13:37:06;9.27;;;4.82;;
55706;SDS011;41608;45.384;20.394;2023-04-23T13:39:34;8.73;;;5.25;;
55706;SDS011;41608;45.384;20.394;2023-04-23T13:42:00;10.48;;;6.00;;
55706;SDS011;41608;45.384;20.394;2023-04-23T13:44:28;9.98;;;5.43;;
55706;SDS011;41608;45.384;20.394;2023-04-23T13:46:55;10.90;;;4.85;;
55706;SDS011;41608;45.384;20.394;2023-04-23T13:49:22;13.55;;;4.85;;
55706;SDS011;41608;45.384;20.394;2023-04-23T13:51:49;8.20;;;5.20;;
55706;SDS011;41608;45.384;20.394;2023-04-23T13:54:18;9.60;;;5.10;;
55706;SDS011;41608;45.384;20.394;2023-04-23T13:56:44;6.15;;;4.88;;
55706;SDS011;41608;45.384;20.394;2023-04-23T13:59:10;7.40;;;5.82;;
55706;SDS011;41608;45.384;20.394;2023-04-23T14:01:37;6.65;;;4.78;;
55706;SDS011;41608;45.384;20.394;2023-04-23T14:04:03;9.48;;;4.78;;
55706;SDS011;41608;45.384;20.394;2023-04-23T14:06:31;7.97;;;4.25;;
55706;SDS011;41608;45.384;20.394;2023-04-23T14:08:58;6.85;;;4.85;;
55706;SDS011;41608;45.384;20.394;2023-04-23T14:11:24;11.75;;;5.65;;
55706;SDS011;41608;45.384;20.394;2023-04-23T14:13:50;9.85;;;5.35;;
55706;SDS011;41608;45.384;20.394;2023-04-23T14:16:16;9.63;;;5.07;;
55706;SDS011;41608;45.384;20.394;2023-04-23T14:18:42;6.68;;;4.68;;
55706;SDS011;41608;45.384;20.394;2023-04-23T14:21:09;9.27;;;5.28;;
55706;SDS011;41608;45.384;20.394;2023-04-23T14:24:08;7.47;;;5.40;;
55706;SDS011;41608;45.384;20.394;2023-04-23T14:28:55;9.60;;;5.43;;
55706;SDS011;41608;45.384;20.394;2023-04-23T14:31:21;9.32;;;4.55;;
55706;SDS011;41608;45.384;20.394;2023-04-23T14:33:47;10.95;;;5.30;;